createdAt,value
2018-12-17T00:00:46.422Z,101056.77
2018-12-17T00:03:13.827Z,101057.22
2018-12-17T00:05:41.845Z,101050.35
2018-12-17T00:08:09.551Z,101054.66
2018-12-17T00:10:36.961Z,101059.35
2018-12-17T00:13:04.374Z,101058.06
2018-12-17T00:15:31.794Z,101055.06
2018-12-17T00:17:59.220Z,101063.64
2018-12-17T00:20:26.646Z,101068.34
2018-12-17T00:22:54.070Z,101067.09
2018-12-17T00:25:21.473Z,101063.23
2018-12-17T00:27:48.888Z,101058.06
2018-12-17T00:30:16.307Z,101055.92
2018-12-17T00:32:43.711Z,101061.92
2018-12-17T00:35:11.146Z,101061.87
2018-12-17T00:37:38.548Z,101078.56
2018-12-17T00:40:07.064Z,101073.48
2018-12-17T00:42:34.467Z,101075.58
2018-12-17T00:45:01.883Z,101082.00
2018-12-17T00:47:29.376Z,101081.63
2018-12-17T00:49:56.794Z,101084.19
2018-12-17T00:52:24.232Z,101090.17
2018-12-17T00:54:51.637Z,101083.75
2018-12-17T00:57:19.054Z,101079.92
2018-12-17T00:59:46.474Z,101087.66
2018-12-17T01:02:13.883Z,101090.22
2018-12-17T01:04:41.291Z,101091.06
2018-12-17T01:07:08.697Z,101094.89
2018-12-17T01:09:36.099Z,101084.56
2018-12-17T01:12:03.517Z,101093.56
2018-12-17T01:14:30.906Z,101098.24
2018-12-17T01:16:58.321Z,101099.96
2018-12-17T01:19:26.418Z,101093.11
2018-12-17T01:21:54.128Z,101103.81
2018-12-17T01:24:21.539Z,101103.39
2018-12-17T01:26:48.969Z,101099.13
2018-12-17T01:29:16.372Z,101104.32
2018-12-17T01:31:43.796Z,101096.99
2018-12-17T01:34:11.241Z,101099.56
2018-12-17T01:36:38.617Z,101098.75
2018-12-17T01:39:06.251Z,101090.55
2018-12-17T01:41:33.660Z,101089.25
2018-12-17T01:44:01.063Z,101093.55
2018-12-17T01:46:28.494Z,101098.26
2018-12-17T01:48:55.890Z,101095.27
2018-12-17T01:51:23.313Z,101099.09
2018-12-17T01:53:50.718Z,101096.12
2018-12-17T01:56:18.131Z,101101.26
2018-12-17T01:58:45.648Z,101093.53
2018-12-17T02:01:13.132Z,101101.70
2018-12-17T02:03:41.633Z,101098.76
2018-12-17T02:06:09.062Z,101098.27
2018-12-17T02:08:36.557Z,101106.84
2018-12-17T02:11:04.754Z,101111.11
2018-12-17T02:13:32.177Z,101108.59
2018-12-17T02:15:59.601Z,101115.03
2018-12-17T02:18:27.000Z,101106.88
2018-12-17T02:20:54.430Z,101110.27
2018-12-17T02:23:21.836Z,101111.55
2018-12-17T02:25:49.254Z,101124.38
2018-12-17T02:28:16.659Z,101120.96
2018-12-17T02:30:44.066Z,101127.44
2018-12-17T02:33:11.460Z,101128.30
2018-12-17T02:35:38.870Z,101130.44
2018-12-17T02:38:06.265Z,101138.99
2018-12-17T02:40:33.674Z,101135.14
2018-12-17T02:43:01.083Z,101137.30
2018-12-17T02:45:28.495Z,101148.00
2018-12-17T02:47:55.978Z,101148.02
2018-12-17T02:50:23.411Z,101144.16
2018-12-17T02:52:50.810Z,101141.95
2018-12-17T02:55:18.229Z,101136.43
2018-12-17T02:57:45.625Z,101142.80
2018-12-17T03:00:13.133Z,101147.06
2018-12-17T03:02:40.526Z,101133.34
2018-12-17T03:05:08.031Z,101139.38
2018-12-17T03:07:35.439Z,101138.95
2018-12-17T03:10:02.942Z,101132.52
2018-12-17T03:12:30.338Z,101138.06
2018-12-17T03:14:57.742Z,101138.50
2018-12-17T03:17:25.153Z,101132.94
2018-12-17T03:19:52.549Z,101131.28
2018-12-17T03:22:19.953Z,101138.95
2018-12-17T03:24:47.363Z,101150.95
2018-12-17T03:27:14.769Z,101147.13
2018-12-17T03:29:42.262Z,101159.56
2018-12-17T03:32:09.672Z,101172.41
2018-12-17T03:34:37.139Z,101173.70
2018-12-17T03:37:04.564Z,101172.41
2018-12-17T03:39:32.065Z,101175.41
2018-12-17T03:41:59.501Z,101173.69
2018-12-17T03:44:26.993Z,101172.83
2018-12-17T03:46:54.404Z,101183.06
2018-12-17T03:49:21.825Z,101183.48
2018-12-17T03:51:49.235Z,101175.33
2018-12-17T03:54:16.625Z,101166.78
2018-12-17T03:56:44.050Z,101175.77
2018-12-17T03:59:11.458Z,101170.61
2018-12-17T04:01:38.849Z,101165.48
2018-12-17T04:04:06.247Z,101166.75
2018-12-17T04:06:33.650Z,101175.28
2018-12-17T04:09:01.038Z,101172.75
2018-12-17T04:11:28.427Z,101173.18
2018-12-17T04:13:55.821Z,101174.04
2018-12-17T04:16:23.236Z,101183.47
2018-12-17T04:18:50.755Z,101179.61
2018-12-17T04:21:18.182Z,101181.75
2018-12-17T04:23:45.686Z,101184.75
2018-12-17T04:26:13.163Z,101189.84
2018-12-17T04:28:40.661Z,101188.61
2018-12-17T04:31:08.050Z,101196.70
2018-12-17T04:33:35.452Z,101188.61
2018-12-17T04:36:02.859Z,101193.70
2018-12-17T04:38:30.250Z,101208.27
2018-12-17T04:40:57.694Z,101205.27
2018-12-17T04:43:25.106Z,101205.70
2018-12-17T04:45:52.510Z,101213.88
2018-12-17T04:48:19.911Z,101214.75
2018-12-17T04:50:47.374Z,101209.18
2018-12-17T04:53:14.791Z,101217.30
2018-12-17T04:55:42.218Z,101213.45
2018-12-17T04:58:09.626Z,101213.88
2018-12-17T05:00:37.044Z,101220.74
2018-12-17T05:03:04.457Z,101228.03
2018-12-17T05:05:31.966Z,101234.88
2018-12-17T05:07:59.390Z,101241.73
2018-12-17T05:10:26.797Z,101235.31
2018-12-17T05:12:54.218Z,101245.16
2018-12-17T05:15:21.623Z,101249.44
2018-12-17T05:17:49.043Z,101252.39
2018-12-17T05:20:16.439Z,101258.43
2018-12-17T05:22:43.854Z,101260.96
2018-12-17T05:25:11.276Z,101261.86
2018-12-17T05:27:38.779Z,101269.14
2018-12-17T05:30:06.579Z,101269.56
2018-12-17T05:32:33.981Z,101268.70
2018-12-17T05:35:01.473Z,101277.28
2018-12-17T05:37:28.955Z,101283.70
2018-12-17T05:39:56.357Z,101278.56
2018-12-17T05:42:23.761Z,101285.42
2018-12-17T05:44:51.170Z,101287.98
2018-12-17T05:47:18.654Z,101285.38
2018-12-17T05:49:46.048Z,101294.36
2018-12-17T05:52:13.522Z,101285.80
2018-12-17T05:54:40.923Z,101291.36
2018-12-17T05:57:08.320Z,101287.94
2018-12-17T05:59:35.721Z,101290.89
2018-12-17T06:02:03.127Z,101292.17
2018-12-17T06:04:30.550Z,101299.03
2018-12-17T06:06:57.943Z,101296.51
2018-12-17T06:09:25.519Z,101294.37
2018-12-17T06:11:53.097Z,101306.38
2018-12-17T06:14:20.497Z,101305.55
2018-12-17T06:16:47.891Z,101307.69
2018-12-17T06:19:15.300Z,101308.12
2018-12-17T06:21:42.698Z,101316.26
2018-12-17T06:24:10.101Z,101324.40
2018-12-17T06:26:37.510Z,101319.69
2018-12-17T06:29:04.907Z,101324.37
2018-12-17T06:31:32.334Z,101325.65
2018-12-17T06:33:59.744Z,101330.36
2018-12-17T06:36:27.144Z,101332.50
2018-12-17T06:38:54.543Z,101332.50
2018-12-17T06:41:21.972Z,101329.89
2018-12-17T06:43:49.365Z,101345.31
2018-12-17T06:46:16.791Z,101348.31
2018-12-17T06:48:44.185Z,101347.45
2018-12-17T06:51:11.574Z,101347.45
2018-12-17T06:53:39.683Z,101345.31
2018-12-17T06:56:07.111Z,101344.45
2018-12-17T06:58:34.506Z,101352.17
2018-12-17T07:01:01.897Z,101355.59
2018-12-17T07:03:29.307Z,101356.03
2018-12-17T07:05:56.695Z,101362.03
2018-12-17T07:08:24.097Z,101365.45
2018-12-17T07:10:51.497Z,101367.56
2018-12-17T07:13:18.908Z,101370.59
2018-12-17T07:15:46.304Z,101376.98
2018-12-17T07:18:13.706Z,101384.69
2018-12-17T07:20:41.188Z,101385.08
2018-12-17T07:23:08.582Z,101394.98
2018-12-17T07:25:35.990Z,101396.27
2018-12-17T07:28:03.388Z,101405.70
2018-12-17T07:30:30.782Z,101405.27
2018-12-17T07:32:58.187Z,101407.42
2018-12-17T07:35:25.593Z,101403.56
2018-12-17T07:37:53.015Z,101405.27
2018-12-17T07:40:20.419Z,101403.99
2018-12-17T07:42:47.814Z,101407.84
2018-12-17T07:45:15.227Z,101404.41
2018-12-17T07:47:42.644Z,101407.41
2018-12-17T07:50:10.042Z,101413.84
2018-12-17T07:52:37.436Z,101409.98
2018-12-17T07:55:05.147Z,101417.23
2018-12-17T07:57:32.553Z,101416.38
2018-12-17T07:59:59.946Z,101420.23
2018-12-17T08:02:27.360Z,101417.67
2018-12-17T08:04:54.762Z,101421.95
2018-12-17T08:07:22.163Z,101416.80
2018-12-17T08:09:49.890Z,101420.22
2018-12-17T08:12:17.289Z,101418.94
2018-12-17T08:14:44.692Z,101421.95
2018-12-17T08:17:12.222Z,101423.66
2018-12-17T08:19:39.628Z,101419.36
2018-12-17T08:22:07.111Z,101424.52
2018-12-17T08:24:34.606Z,101430.95
2018-12-17T08:27:02.007Z,101426.67
2018-12-17T08:29:29.495Z,101431.81
2018-12-17T08:31:56.916Z,101434.80
2018-12-17T08:34:24.336Z,101443.38
2018-12-17T08:36:51.739Z,101441.23
2018-12-17T08:39:19.136Z,101452.83
2018-12-17T08:41:46.550Z,101457.16
2018-12-17T08:44:14.032Z,101462.70
2018-12-17T08:46:41.528Z,101463.55
2018-12-17T08:49:08.926Z,101458.41
2018-12-17T08:51:36.561Z,101463.50
2018-12-17T08:54:03.957Z,101466.08
2018-12-17T08:56:31.452Z,101462.65
2018-12-17T08:58:58.842Z,101456.20
2018-12-17T09:01:26.241Z,101466.50
2018-12-17T09:03:53.642Z,101463.94
2018-12-17T09:06:21.039Z,101456.20
2018-12-17T09:08:48.445Z,101455.77
2018-12-17T09:11:15.845Z,101461.79
2018-12-17T09:13:43.512Z,101463.08
2018-12-17T09:16:10.903Z,101466.07
2018-12-17T09:18:38.308Z,101475.09
2018-12-17T09:21:05.706Z,101470.80
2018-12-17T09:23:33.103Z,101480.66
2018-12-17T09:26:00.521Z,101472.50
2018-12-17T09:28:27.926Z,101478.08
2018-12-17T09:30:55.327Z,101478.89
2018-12-17T09:33:22.735Z,101481.52
2018-12-17T09:35:50.147Z,101476.36
2018-12-17T09:38:17.546Z,101484.52
2018-12-17T09:40:44.960Z,101484.09
2018-12-17T09:43:12.373Z,101490.09
2018-12-17T09:45:39.788Z,101491.34
2018-12-17T09:48:07.186Z,101490.91
2018-12-17T09:50:34.598Z,101489.62
2018-12-17T09:53:02.097Z,101486.61
2018-12-17T09:55:29.502Z,101493.91
2018-12-17T09:57:56.915Z,101495.20
2018-12-17T10:00:25.604Z,101488.75
2018-12-17T10:02:53.304Z,101494.33
2018-12-17T10:05:20.705Z,101486.12
2018-12-17T10:07:48.179Z,101482.66
2018-12-17T10:10:15.572Z,101489.17
2018-12-17T10:12:42.958Z,101489.59
2018-12-17T10:15:10.361Z,101485.73
2018-12-17T10:17:37.750Z,101490.83
2018-12-17T10:20:05.548Z,101487.80
2018-12-17T10:22:32.934Z,101485.66
2018-12-17T10:25:00.320Z,101492.11
2018-12-17T10:27:27.706Z,101480.49
2018-12-17T10:29:55.097Z,101479.16
2018-12-17T10:32:22.507Z,101483.41
2018-12-17T10:34:49.915Z,101481.73
2018-12-17T10:37:17.323Z,101481.79
2018-12-17T10:39:44.715Z,101480.02
2018-12-17T10:42:12.124Z,101471.44
2018-12-17T10:44:39.518Z,101475.70
2018-12-17T10:47:06.912Z,101471.83
2018-12-17T10:49:34.402Z,101474.39
2018-12-17T10:52:01.804Z,101481.20
2018-12-17T10:54:29.203Z,101481.70
2018-12-17T10:56:56.799Z,101474.01
2018-12-17T10:59:24.213Z,101482.56
2018-12-17T11:01:54.387Z,101482.97
2018-12-17T11:04:23.681Z,101479.47
2018-12-17T11:06:51.088Z,101478.56
2018-12-17T11:09:18.486Z,101478.56
2018-12-17T11:11:45.885Z,101478.17
2018-12-17T11:14:13.270Z,101479.98
2018-12-17T11:16:40.670Z,101480.83
2018-12-17T11:19:08.057Z,101479.11
2018-12-17T11:21:35.458Z,101481.26
2018-12-17T11:24:02.932Z,101476.46
2018-12-17T11:26:30.331Z,101482.05
2018-12-17T11:28:57.738Z,101472.59
2018-12-17T11:31:25.246Z,101475.58
2018-12-17T11:33:52.640Z,101473.45
2018-12-17T11:36:20.048Z,101477.34
2018-12-17T11:38:47.453Z,101476.48
2018-12-17T11:41:14.855Z,101478.69
2018-12-17T11:43:43.918Z,101479.98
2018-12-17T11:46:11.671Z,101480.42
2018-12-17T11:48:39.662Z,101475.69
2018-12-17T11:51:07.051Z,101477.82
2018-12-17T11:53:34.454Z,101471.30
2018-12-17T11:56:01.841Z,101470.02
2018-12-17T11:58:29.241Z,101468.72
2018-12-17T12:00:57.639Z,101465.62
2018-12-17T12:03:25.038Z,101465.68
2018-12-17T12:05:52.431Z,101466.12
2018-12-17T12:08:19.830Z,101464.84
2018-12-17T12:10:47.313Z,101468.72
2018-12-17T12:13:14.711Z,101475.58
2018-12-17T12:15:42.104Z,101475.59
2018-12-17T12:18:09.507Z,101472.16
2018-12-17T12:20:36.909Z,101479.45
2018-12-17T12:23:04.337Z,101471.27
2018-12-17T12:25:31.730Z,101480.71
2018-12-17T12:27:59.126Z,101479.43
2018-12-17T12:30:26.514Z,101489.74
2018-12-17T12:32:53.914Z,101492.75
2018-12-17T12:35:21.304Z,101491.37
2018-12-17T12:37:48.701Z,101487.48
2018-12-17T12:40:16.110Z,101484.84
2018-12-17T12:42:43.504Z,101481.44
2018-12-17T12:45:10.973Z,101492.13
2018-12-17T12:47:38.365Z,101483.50
2018-12-17T12:50:07.890Z,101487.78
2018-12-17T12:52:35.278Z,101489.93
2018-12-17T12:55:02.721Z,101486.94
2018-12-17T12:57:30.111Z,101486.94
2018-12-17T12:59:57.500Z,101485.75
2018-12-17T13:02:24.906Z,101494.29
2018-12-17T13:04:52.300Z,101495.57
2018-12-17T13:07:19.688Z,101493.93
2018-12-17T13:09:47.093Z,101495.63
2018-12-17T13:12:14.502Z,101503.75
2018-12-17T13:14:41.902Z,101510.25
2018-12-17T13:17:30.074Z,101514.03
2018-12-17T13:19:57.474Z,101512.81
2018-12-17T13:22:24.865Z,101515.73
2018-12-17T13:24:52.264Z,101512.74
2018-12-17T13:27:19.671Z,101509.24
2018-12-17T13:29:47.071Z,101519.62
2018-12-17T13:32:14.470Z,101516.18
2018-12-17T13:34:41.880Z,101513.17
2018-12-17T13:37:09.354Z,101521.32
2018-12-17T13:39:36.778Z,101529.49
2018-12-17T13:42:04.182Z,101533.38
2018-12-17T13:44:31.580Z,101526.50
2018-12-17T13:46:58.973Z,101523.08
2018-12-17T13:49:26.364Z,101519.28
2018-12-17T13:51:59.309Z,101523.09
2018-12-17T13:54:26.710Z,101526.95
2018-12-17T13:56:54.092Z,101520.48
2018-12-17T13:59:21.500Z,101524.33
2018-12-17T14:01:51.662Z,101526.50
2018-12-17T14:04:18.279Z,101521.80
2018-12-17T14:06:45.689Z,101521.00
2018-12-17T14:09:13.086Z,101523.13
2018-12-17T14:11:40.477Z,101524.02
2018-12-17T14:14:07.870Z,101528.75
2018-12-17T14:16:40.968Z,101526.16
2018-12-17T14:19:14.028Z,101533.05
2018-12-17T14:21:47.140Z,101539.06
2018-12-17T14:24:14.522Z,101542.94
2018-12-17T14:26:41.989Z,101540.77
2018-12-17T14:29:09.392Z,101539.92
2018-12-17T14:31:36.786Z,101535.61
2018-12-17T14:34:04.188Z,101534.76
2018-12-17T14:36:31.596Z,101537.36
2018-12-17T14:38:59.021Z,101543.39
2018-12-17T14:41:26.488Z,101536.06
2018-12-17T14:43:55.866Z,101530.55
2018-12-17T14:46:23.255Z,101531.36
2018-12-17T14:48:50.657Z,101538.20
2018-12-17T14:51:18.065Z,101545.61
2018-12-17T14:53:45.555Z,101550.27
2018-12-17T14:56:12.951Z,101554.64
2018-12-17T14:58:44.421Z,101555.05
2018-12-17T15:01:09.770Z,101562.78
2018-12-17T15:03:37.180Z,101567.52
2018-12-17T15:06:04.561Z,101564.02
2018-12-17T15:08:31.974Z,101571.30
2018-12-17T15:10:59.361Z,101568.78
2018-12-17T15:13:26.805Z,101572.59
2018-12-17T15:15:54.195Z,101575.18
2018-12-17T15:18:21.587Z,101578.19
2018-12-17T15:20:48.986Z,101580.76
2018-12-17T15:23:16.386Z,101585.49
2018-12-17T15:25:43.865Z,101593.20
2018-12-17T15:28:11.275Z,101593.20
2018-12-17T15:30:38.674Z,101601.34
2018-12-17T15:33:06.054Z,101597.86
2018-12-17T15:35:33.445Z,101603.44
2018-12-17T15:38:00.834Z,101605.59
2018-12-17T15:40:28.239Z,101604.29
2018-12-17T15:42:55.698Z,101604.30
2018-12-17T15:45:23.100Z,101606.44
2018-12-17T15:47:50.584Z,101602.99
2018-12-17T15:50:17.970Z,101609.09
2018-12-17T15:52:45.378Z,101604.31
2018-12-17T15:55:12.784Z,101614.23
2018-12-17T15:57:40.239Z,101614.62
2018-12-17T16:00:09.242Z,101615.48
2018-12-17T16:02:36.721Z,101618.49
2018-12-17T16:05:05.530Z,101618.55
2018-12-17T16:07:33.017Z,101619.02
2018-12-17T16:10:00.418Z,101613.05
2018-12-17T16:12:27.920Z,101616.43
2018-12-17T16:14:55.308Z,101622.44
2018-12-17T16:17:22.729Z,101622.44
2018-12-17T16:19:50.133Z,101623.72
2018-12-17T16:22:17.534Z,101617.28
2018-12-17T16:24:44.926Z,101616.84
2018-12-17T16:27:19.029Z,101615.55
2018-12-17T16:29:41.691Z,101613.84
2018-12-17T16:32:09.549Z,101622.86
2018-12-17T16:34:36.948Z,101631.91
2018-12-17T16:37:04.541Z,101633.62
2018-12-17T16:39:31.939Z,101626.32
2018-12-17T16:41:59.335Z,101637.90
2018-12-17T16:44:26.731Z,101640.06
2018-12-17T16:46:54.199Z,101641.33
2018-12-17T16:49:21.604Z,101643.86
2018-12-17T16:51:48.990Z,101636.11
2018-12-17T16:54:16.388Z,101640.39
2018-12-17T16:56:43.782Z,101640.84
2018-12-17T16:59:11.174Z,101640.41
2018-12-17T17:01:38.563Z,101639.55
2018-12-17T17:04:05.969Z,101643.84
2018-12-17T17:06:33.363Z,101650.72
2018-12-17T17:09:00.751Z,101656.74
2018-12-17T17:11:28.142Z,101652.44
2018-12-17T17:13:55.535Z,101658.02
2018-12-17T17:16:22.926Z,101654.60
2018-12-17T17:18:50.312Z,101657.16
2018-12-17T17:21:17.707Z,101661.89
2018-12-17T17:23:45.126Z,101658.08
2018-12-17T17:26:12.522Z,101660.23
2018-12-17T17:28:39.913Z,101664.05
2018-12-17T17:31:07.348Z,101670.04
2018-12-17T17:33:34.732Z,101667.47
2018-12-17T17:36:02.235Z,101670.42
2018-12-17T17:38:29.655Z,101670.05
2018-12-17T17:40:57.042Z,101675.62
2018-12-17T17:43:24.447Z,101679.06
2018-12-17T17:45:51.839Z,101679.52
2018-12-17T17:48:19.321Z,101680.81
2018-12-17T17:50:46.808Z,101680.36
2018-12-17T17:53:14.202Z,101687.67
2018-12-17T17:55:41.606Z,101683.39
2018-12-17T17:58:09.014Z,101685.11
2018-12-17T18:00:36.413Z,101691.53
2018-12-17T18:03:04.718Z,101689.81
2018-12-17T18:05:32.124Z,101690.19
2018-12-17T18:07:59.575Z,101687.19
2018-12-17T18:10:26.990Z,101689.38
2018-12-17T18:12:54.373Z,101694.06
2018-12-17T18:15:22.170Z,101696.62
2018-12-17T18:17:49.605Z,101698.78
2018-12-17T18:20:16.989Z,101698.41
2018-12-17T18:22:44.377Z,101696.69
2018-12-17T18:25:11.769Z,101693.25
2018-12-17T18:27:39.153Z,101702.72
2018-12-17T18:30:06.683Z,101703.56
2018-12-17T18:32:34.080Z,101703.09
2018-12-17T18:35:01.474Z,101700.52
2018-12-17T18:37:28.949Z,101707.37
2018-12-17T18:39:56.523Z,101706.95
2018-12-17T18:42:23.958Z,101704.80
2018-12-17T18:44:51.369Z,101710.38
2018-12-17T18:47:25.439Z,101703.56
2018-12-17T18:49:48.128Z,101711.73
2018-12-17T18:52:16.333Z,101711.67
2018-12-17T18:54:43.724Z,101713.80
2018-12-17T18:57:11.156Z,101713.82
2018-12-17T18:59:38.554Z,101706.95
2018-12-17T19:02:06.955Z,101713.81
2018-12-17T19:04:34.351Z,101711.23
2018-12-17T19:07:01.752Z,101714.66
2018-12-17T19:09:29.299Z,101714.66
2018-12-17T19:11:56.726Z,101714.23
2018-12-17T19:14:24.115Z,101713.30
2018-12-17T19:16:51.535Z,101716.84
2018-12-17T19:19:19.018Z,101714.17
2018-12-17T19:21:46.419Z,101719.77
2018-12-17T19:24:13.818Z,101724.05
2018-12-17T19:26:41.210Z,101726.63
2018-12-17T19:29:08.622Z,101724.93
2018-12-17T19:31:36.048Z,101727.52
2018-12-17T19:34:03.445Z,101722.34
2018-12-17T19:36:30.831Z,101720.25
2018-12-17T19:38:58.311Z,101722.41
2018-12-17T19:41:25.705Z,101723.70
2018-12-17T19:43:53.094Z,101725.36
2018-12-17T19:46:20.509Z,101729.29
2018-12-17T19:48:47.917Z,101726.72
2018-12-17T19:51:15.490Z,101729.67
2018-12-17T19:53:43.419Z,101730.50
2018-12-17T19:56:10.814Z,101729.21
2018-12-17T19:58:38.217Z,101728.33
2018-12-17T20:01:05.785Z,101725.27
2018-12-17T20:03:33.172Z,101729.13
2018-12-17T20:06:00.643Z,101735.66
2018-12-17T20:08:28.166Z,101739.53
2018-12-17T20:10:55.556Z,101743.41
2018-12-17T20:13:22.950Z,101743.81
2018-12-17T20:15:50.325Z,101742.98
2018-12-17T20:18:17.733Z,101749.41
2018-12-17T20:20:45.149Z,101744.26
2018-12-17T20:23:12.542Z,101747.28
2018-12-17T20:25:39.934Z,101741.69
2018-12-17T20:28:07.325Z,101743.84
2018-12-17T20:30:34.704Z,101752.44
2018-12-17T20:33:02.086Z,101751.08
2018-12-17T20:35:29.569Z,101750.70
2018-12-17T20:37:57.016Z,101748.91
2018-12-17T20:40:24.450Z,101743.30
2018-12-17T20:42:51.826Z,101745.87
2018-12-17T20:45:19.319Z,101749.77
2018-12-17T20:47:46.722Z,101752.33
2018-12-17T20:50:14.240Z,101753.62
2018-12-17T20:52:41.694Z,101761.38
2018-12-17T20:55:09.094Z,101762.22
2018-12-17T20:57:36.487Z,101760.86
2018-12-17T21:00:06.067Z,101761.67
2018-12-17T21:02:33.460Z,101760.86
2018-12-17T21:05:00.865Z,101769.91
2018-12-17T21:07:28.279Z,101762.13
2018-12-17T21:09:55.672Z,101765.57
2018-12-17T21:12:23.080Z,101757.84
2018-12-17T21:14:50.458Z,101756.64
2018-12-17T21:17:17.850Z,101749.75
2018-12-17T21:19:45.256Z,101748.01
2018-12-17T21:22:12.646Z,101743.62
2018-12-17T21:24:40.037Z,101748.77
2018-12-17T21:27:07.428Z,101751.40
2018-12-17T21:29:34.818Z,101755.27
2018-12-17T21:32:02.207Z,101759.13
2018-12-17T21:34:29.618Z,101753.91
2018-12-17T21:36:57.008Z,101750.06
2018-12-17T21:39:24.408Z,101750.05
2018-12-17T21:41:51.802Z,101749.65
2018-12-17T21:44:19.190Z,101753.49
2018-12-17T21:46:46.606Z,101749.63
2018-12-17T21:49:14.011Z,101746.64
2018-12-17T21:51:41.382Z,101743.97
2018-12-17T21:54:08.794Z,101737.55
2018-12-17T21:56:36.175Z,101745.69
2018-12-17T21:59:03.562Z,101740.95
2018-12-17T22:01:30.959Z,101738.77
2018-12-17T22:03:58.369Z,101746.97
2018-12-17T22:06:25.752Z,101746.95
2018-12-17T22:08:53.142Z,101743.48
2018-12-17T22:11:20.555Z,101748.64
2018-12-17T22:13:47.961Z,101750.39
2018-12-17T22:16:15.430Z,101760.28
2018-12-17T22:18:42.826Z,101770.59
2018-12-17T22:21:10.206Z,101771.42
2018-12-17T22:23:37.621Z,101765.34
2018-12-17T22:26:05.009Z,101774.39
2018-12-17T22:28:32.417Z,101775.25
2018-12-17T22:30:59.809Z,101779.54
2018-12-17T22:33:27.210Z,101785.56
2018-12-17T22:35:54.609Z,101781.65
2018-12-17T22:38:22.033Z,101779.05
2018-12-17T22:40:49.429Z,101782.45
2018-12-17T22:43:16.821Z,101775.54
2018-12-17T22:45:44.314Z,101780.28
2018-12-17T22:48:11.700Z,101785.07
2018-12-17T22:50:39.100Z,101785.45
2018-12-17T22:53:06.501Z,101791.05
2018-12-17T22:55:33.894Z,101790.19
2018-12-17T22:58:01.323Z,101790.17
2018-12-17T23:00:28.730Z,101786.30
2018-12-17T23:02:56.122Z,101793.98
2018-12-17T23:05:23.514Z,101790.95
2018-12-17T23:07:50.943Z,101790.02
2018-12-17T23:10:32.037Z,101781.47
2018-12-17T23:13:11.329Z,101785.73
2018-12-17T23:15:50.754Z,101788.30
2018-12-17T23:18:17.686Z,101781.83
2018-12-17T23:20:45.081Z,101783.94
2018-12-17T23:23:12.481Z,101781.35
2018-12-17T23:25:39.871Z,101773.11
2018-12-17T23:28:08.183Z,101766.23
2018-12-17T23:30:35.596Z,101763.28
2018-12-17T23:33:02.987Z,101769.72
2018-12-17T23:35:30.389Z,101770.48
2018-12-17T23:37:57.790Z,101767.88
2018-12-17T23:40:25.185Z,101775.22
2018-12-17T23:42:52.592Z,101767.09
2018-12-17T23:45:20.088Z,101768.87
2018-12-17T23:47:47.892Z,101775.82
2018-12-17T23:50:15.302Z,101780.48
2018-12-17T23:52:42.691Z,101774.84
2018-12-17T23:55:10.081Z,101776.94
2018-12-17T23:57:37.474Z,101779.09
